»·PEaware :: FFT773 KDEN-KLAS

FFT773 :: KDEN-KLAS

FLIGHT INFORMATION

Flight Status: Arrived
Operator:
Frontier Airlines
More flights by this operator :: More flights under this callsign
Pilot: Andrew C. (32327)
Aircraft: AIRBUS A321
(A321)
More flights by this aircraft type
Origin: KDEN Denver Intl
United States
Destination: KLAS McCarran Intl
United States
More flights between these airports :: More routes between these airports
Route: CONNR7 WERNR ZAKRY GGAPP CHOWW1
File this flight plan on PilotEdge
Remarks: RMK / SIMBRIEF
Altitude:
(Current/Filed)
34,000ft
Speed:
(Current/Filed)
456kts
Departed: 26-Mar-21 02:07 PM
Arrived: 26-Mar-21 03:29 PM
Distance/Time
Traveled:
544nm/1:22
Distance/Time
To Go:
Arrived

Flight Plot

Page will automatically refresh every two minutes.

Flight plan parsing failed; only flown route is shown


Map Options




Map Legend


Flown Route
Filed Route
Departure Airport
Arrival Airport
Navaid (VOR, NDB)
Fix

Horizontal Profiles

Position Reports

Time Latitude Longitude Heading Altitude Ground
Speed
26-Mar-21 13:47 39.853297 -104.675554 32 5379ft 0kts
26-Mar-21 13:48 39.853297 -104.675554 32 5379ft 0kts
26-Mar-21 13:49 39.853297 -104.675554 32 5379ft 0kts
26-Mar-21 13:50 39.853297 -104.675554 32 5379ft 0kts
26-Mar-21 13:51 39.853297 -104.675554 32 5379ft 0kts
26-Mar-21 13:52 39.853297 -104.675554 32 5379ft 0kts
26-Mar-21 13:53 39.853297 -104.675554 32 5379ft 0kts
26-Mar-21 13:54 39.853297 -104.675554 32 5379ft 0kts
26-Mar-21 13:55 39.853297 -104.675554 32 5379ft 0kts
26-Mar-21 13:56 39.853297 -104.675554 32 5379ft 0kts
26-Mar-21 13:57 39.853297 -104.675555 32 5379ft 0kts
26-Mar-21 13:58 39.852807 -104.675477 295 5379ft 2kts
26-Mar-21 13:59 39.852748 -104.674998 274 5379ft 0kts
26-Mar-21 14:00 39.852748 -104.674999 274 5379ft 0kts
26-Mar-21 14:01 39.852748 -104.675069 270 5379ft 3kts
26-Mar-21 14:02 39.852807 -104.680495 270 5379ft 16kts
26-Mar-21 14:03 39.852460 -104.684017 186 5373ft 15kts
26-Mar-21 14:04 39.846292 -104.684100 180 5368ft 25kts
26-Mar-21 14:05 39.841849 -104.684136 179 5366ft 0kts
26-Mar-21 14:06 39.840748 -104.696136 270 5366ft 122kts
26-Mar-21 14:07 39.840249 -104.760773 274 6885ft 188kts
26-Mar-21 14:08 39.841861 -104.836363 273 8082ft 226kts
26-Mar-21 14:09 39.836841 -104.937800 257 9260ft 294kts
26-Mar-21 14:10 39.813926 -105.050751 255 11149ft 333kts
26-Mar-21 14:11 39.786215 -105.187849 255 12305ft 396kts
26-Mar-21 14:12 39.754830 -105.342373 255 15036ft 410kts
26-Mar-21 14:13 39.722037 -105.502476 255 17893ft 421kts
26-Mar-21 14:14 39.689046 -105.666377 256 20520ft 431kts
26-Mar-21 14:15 39.665659 -105.835525 257 22745ft 443kts
26-Mar-21 14:16 39.642248 -106.005842 257 25156ft 441kts
26-Mar-21 14:17 39.618556 -106.175524 257 27179ft 440kts
26-Mar-21 14:18 39.595242 -106.341074 258 28794ft 440kts
26-Mar-21 14:19 39.571787 -106.505818 258 30138ft 441kts
26-Mar-21 14:20 39.546306 -106.666034 253 31305ft 440kts
26-Mar-21 14:21 39.502008 -106.818615 248 32323ft 441kts
26-Mar-21 14:22 39.453847 -106.971337 248 33248ft 441kts
26-Mar-21 14:23 39.406186 -107.121834 249 33953ft 443kts
26-Mar-21 14:24 39.356540 -107.273534 248 33969ft 454kts
26-Mar-21 14:25 39.303421 -107.426137 248 33968ft 454kts
26-Mar-21 14:26 39.250430 -107.578335 248 33969ft 455kts
26-Mar-21 14:27 39.197048 -107.731215 248 33968ft 456kts
26-Mar-21 14:28 39.143665 -107.883306 248 33968ft 456kts
26-Mar-21 14:29 39.089601 -108.036105 249 33968ft 457kts
26-Mar-21 14:30 39.035428 -108.188754 249 33968ft 458kts
26-Mar-21 14:31 38.980099 -108.343745 249 33969ft 458kts
26-Mar-21 14:32 38.925298 -108.496395 249 33969ft 458kts
26-Mar-21 14:33 38.870027 -108.648744 249 33968ft 458kts
26-Mar-21 14:34 38.814400 -108.801705 249 33969ft 458kts
26-Mar-21 14:35 38.758562 -108.954860 249 33968ft 458kts
26-Mar-21 14:36 38.701775 -109.109807 249 33968ft 457kts
26-Mar-21 14:37 38.645500 -109.262592 250 33968ft 458kts
26-Mar-21 14:38 38.588946 -109.415377 250 33968ft 458kts
26-Mar-21 14:39 38.532578 -109.566866 250 33969ft 458kts
26-Mar-21 14:41 38.476819 -109.716135 250 33970ft 459kts
26-Mar-21 14:42 38.419455 -109.868913 250 33969ft 459kts
26-Mar-21 14:43 38.361778 -110.021617 250 33976ft 458kts
26-Mar-21 14:44 38.304258 -110.173264 250 33993ft 458kts
26-Mar-21 14:45 38.245807 -110.326540 250 34007ft 457kts
26-Mar-21 14:46 38.187486 -110.478673 250 34017ft 455kts
26-Mar-21 14:47 38.130475 -110.626590 250 34019ft 453kts
26-Mar-21 14:48 38.074324 -110.771890 250 34017ft 450kts
26-Mar-21 14:49 38.018690 -110.915026 250 34016ft 447kts
26-Mar-21 14:50 37.963321 -111.056649 250 34017ft 445kts
26-Mar-21 14:51 37.906473 -111.201496 250 34016ft 442kts
26-Mar-21 14:52 37.848948 -111.346211 250 34017ft 440kts
26-Mar-21 14:53 37.792129 -111.489277 250 34015ft 437kts
26-Mar-21 14:54 37.736950 -111.627918 250 34016ft 436kts
26-Mar-21 14:55 37.682585 -111.764221 249 34016ft 436kts
26-Mar-21 14:56 37.627796 -111.900761 249 34016ft 436kts
26-Mar-21 14:57 37.572067 -112.038937 249 34007ft 435kts
26-Mar-21 14:58 37.511582 -112.176919 244 34001ft 440kts
26-Mar-21 14:59 37.442618 -112.310069 244 33999ft 439kts
26-Mar-21 15:00 37.375185 -112.439592 244 33995ft 419kts
26-Mar-21 15:01 37.310079 -112.564604 244 33998ft 421kts
26-Mar-21 15:02 37.242517 -112.693742 243 34002ft 421kts
26-Mar-21 15:03 37.175566 -112.821404 243 34027ft 420kts
26-Mar-21 15:04 37.109462 -112.946733 243 33948ft 421kts
26-Mar-21 15:05 37.043507 -113.071285 243 32918ft 422kts
26-Mar-21 15:06 36.976618 -113.197099 243 31895ft 425kts
26-Mar-21 15:07 36.909331 -113.323146 243 30841ft 427kts
26-Mar-21 15:08 36.841023 -113.449945 242 28504ft 432kts
26-Mar-21 15:08 36.783558 -113.556943 242 26126ft 438kts
26-Mar-21 15:10 36.702177 -113.708567 241 22389ft 447kts
26-Mar-21 15:11 36.630137 -113.842179 241 19971ft 454kts
26-Mar-21 15:11 36.569650 -113.949376 237 18037ft 418kts
26-Mar-21 15:12 36.503727 -114.055401 238 16155ft 336kts
26-Mar-21 15:14 36.442532 -114.153995 240 15573ft 286kts
26-Mar-21 15:15 36.392768 -114.233903 239 15207ft 286kts
26-Mar-21 15:16 36.342223 -114.313258 238 13825ft 282kts
26-Mar-21 15:16 36.300551 -114.378546 238 12734ft 279kts
26-Mar-21 15:18 36.244662 -114.465714 236 11287ft 275kts
26-Mar-21 15:18 36.204482 -114.527303 235 10267ft 271kts
26-Mar-21 15:19 36.157285 -114.599546 233 9070ft 265kts
26-Mar-21 15:20 36.110462 -114.671047 232 8287ft 265kts
26-Mar-21 15:21 36.072591 -114.742976 268 7982ft 239kts
26-Mar-21 15:22 36.074490 -114.826084 271 6893ft 239kts
26-Mar-21 15:23 36.074241 -114.910312 270 5577ft 231kts
26-Mar-21 15:24 36.073955 -114.984696 270 4405ft 189kts
26-Mar-21 15:25 36.073828 -115.043726 270 3490ft 156kts
26-Mar-21 15:26 36.073814 -115.100134 271 2611ft 155kts
26-Mar-21 15:27 36.073674 -115.148909 270 2187ft 76kts
26-Mar-21 15:28 36.076684 -115.157775 319 2187ft 20kts
26-Mar-21 15:30 36.078055 -115.151715 90 2187ft 19kts
26-Mar-21 15:30 36.077673 -115.144920 94 2187ft 26kts
26-Mar-21 15:31 36.078284 -115.136756 86 2187ft 22kts
26-Mar-21 15:32 36.081791 -115.135063 302 2187ft 11kts
26-Mar-21 15:33 36.082186 -115.135800 304 2187ft 0kts

Navigation Log

Ident Type
Flight plan parsing failed, navigation log unavailable